This is the latest recevied weather packets stored in our database for station/object W1SGB. If no packets are shown the sender has not sent any weather packets the latest 10 day(s).
| Time | Temp. | Humidity | Pressure | Rain* | Wind** | Luminosity | Snow |
|---|---|---|---|---|---|---|---|
| 1777974618 | 8.33° C | 91% | 1010.1 hPa | 0 mm | - | 6 W/m² | - |
| 1777971019 | 8.89° C | 89% | 1010.4 hPa | 0 mm | - | 0 W/m² | - |
| 1777968619 | 9.44° C | 87% | 1010.7 hPa | 0 mm | - | 0 W/m² | - |
| 1777963221 | 10.56° C | 81% | 1010.9 hPa | 0 mm | - | 0 W/m² | - |
| 1777959021 | 11.11° C | 78% | 1011.2 hPa | 0 mm | - | 0 W/m² | - |
| 1777953019 | 11.67° C | 74% | 1011.3 hPa | 0 mm | - | 0 W/m² | - |
| 1777951219 | 12.22° C | 72% | 1011.1 hPa | 0 mm | - | 0 W/m² | - |
| 1777944618 | 12.78° C | 67% | 1011.1 hPa | 0 mm | - | 0 W/m² | - |
| 1777939219 | 15° C | 56% | 1009.5 hPa | 0 mm | - | 1 W/m² | - |
| 1777934417 | 17.22° C | 49% | 1008.7 hPa | 0 mm | - | 64 W/m² | - |
| 1777930859 | 20° C | 44% | 1008.3 hPa | 0 mm | - | 287 W/m² | - |
| 1777929017 | 20° C | 42% | 1008.2 hPa | 0 mm | - | 381 W/m² | - |
| 1777927840 | 21.11° C | 40% | 1008.2 hPa | 0 mm | - | 453 W/m² | - |
| 1777927240 | 21.11° C | 40% | 1008.2 hPa | 0 mm | - | 485 W/m² | - |
| 1777924817 | 21.11° C | 37% | 1008.2 hPa | 0 mm | - | 635 W/m² | - |
| 1777919438 | 20.56° C | 37% | 1008.6 hPa | 0 mm | - | 836 W/m² | - |
| 1777918819 | 20.56° C | 38% | 1008.7 hPa | 0 mm | - | 849 W/m² | - |
| 1777918219 | 20.56° C | 37% | 1008.8 hPa | 0 mm | - | 859 W/m² | - |
| 1777917020 | 20° C | 37% | 1009 hPa | 0 mm | - | 898 W/m² | - |
| 1777906820 | 17.22° C | 40% | 1010.4 hPa | 0 mm | - | 256 W/m² | - |
| 1777901421 | 14.44° C | 47% | 1011.3 hPa | 0 mm | - | 87 W/m² | - |
| 1777900244 | 13.33° C | 50% | 1011.4 hPa | 0 mm | - | 199 W/m² | - |
| 1777899644 | 12.78° C | 51% | 1011.5 hPa | 0 mm | - | 93 W/m² | - |
| 1777893017 | 4.44° C | 73% | 1011.7 hPa | 0 mm | - | 40 W/m² | - |
| 1777891226 | 1.67° C | 88% | 1011.6 hPa | 0 mm | - | 23 W/m² | - |
* Rain latest hour (hover to see other rain measurements)
** Current wind speed in m/s (hover to see current wind gust speed)